Map

Track Data

SID SEASON NUMBER BASIN SUBBASIN NAME ISO_TIME NATURE LAT LON WMO_WIND WMO_PRES WMO_AGENCY TRACK_TYPE DIST2LAND LANDFALL IFLAG USA_AGENCY USA_ATCF_ID USA_LAT USA_LON USA_RECORD USA_STATUS USA_WIND USA_PRES USA_SSHS USA_R34_NE USA_R34_SE USA_R34_SW USA_R34_NW USA_R50_NE USA_R50_SE USA_R50_SW USA_R50_NW USA_R64_NE USA_R64_SE USA_R64_SW USA_R64_NW USA_POCI USA_ROCI USA_RMW USA_EYE TOKYO_LAT TOKYO_LON TOKYO_GRADE TOKYO_WIND TOKYO_PRES TOKYO_R50_DIR TOKYO_R50_LONG TOKYO_R50_SHORT TOKYO_R30_DIR TOKYO_R30_LONG TOKYO_R30_SHORT TOKYO_LAND CMA_LAT CMA_LON CMA_CAT CMA_WIND CMA_PRES HKO_LAT HKO_LON HKO_CAT HKO_WIND HKO_PRES NEWDELHI_LAT NEWDELHI_LON NEWDELHI_GRADE NEWDELHI_WIND NEWDELHI_PRES NEWDELHI_CI NEWDELHI_DP NEWDELHI_POCI REUNION_LAT REUNION_LON REUNION_TYPE REUNION_WIND REUNION_PRES REUNION_TNUM REUNION_CI REUNION_RMW REUNION_R34_NE REUNION_R34_SE REUNION_R34_SW REUNION_R34_NW REUNION_R50_NE REUNION_R50_SE REUNION_R50_SW REUNION_R50_NW REUNION_R64_NE REUNION_R64_SE REUNION_R64_SW REUNION_R64_NW BOM_LAT BOM_LON BOM_TYPE BOM_WIND BOM_PRES BOM_TNUM BOM_CI BOM_RMW BOM_R34_NE BOM_R34_SE BOM_R34_SW BOM_R34_NW BOM_R50_NE BOM_R50_SE BOM_R50_SW BOM_R50_NW BOM_R64_NE BOM_R64_SE BOM_R64_SW BOM_R64_NW BOM_ROCI BOM_POCI BOM_EYE BOM_POS_METHOD BOM_PRES_METHOD NADI_LAT NADI_LON NADI_CAT NADI_WIND NADI_PRES WELLINGTON_LAT WELLINGTON_LON WELLINGTON_WIND WELLINGTON_PRES DS824_LAT DS824_LON DS824_STAGE DS824_WIND DS824_PRES TD9636_LAT TD9636_LON TD9636_STAGE TD9636_WIND TD9636_PRES TD9635_LAT TD9635_LON TD9635_WIND TD9635_PRES TD9635_ROCI NEUMANN_LAT NEUMANN_LON NEUMANN_CLASS NEUMANN_WIND NEUMANN_PRES MLC_LAT MLC_LON MLC_CLASS MLC_WIND MLC_PRES USA_GUST BOM_GUST BOM_GUST_PER REUNION_GUST REUNION_GUST_PER USA_SEAHGT USA_SEARAD_NE USA_SEARAD_SE USA_SEARAD_SW USA_SEARAD_NW STORM_SPEED STORM_DIR
1978027S18043 1978 7 SI MM GEORGIA 1978-01-27 06:00:00 TS -18.0000 42.7000 reunion main 137 126 O____O___OO_O_ jtwc_sh SH151978 -18.0000 42.5000 -1 -18.0000 43.0000 99 9.90000 -18.0000 42.5000 TC 25 -18.0000 42.5000 1 -18.0000 43.0000 TC 25 7 155
1978027S18043 1978 7 SI MM GEORGIA 1978-01-27 09:00:00 TS -18.2942 42.8436 main 126 106 P____P___PP_P_ SH151978 -18.2001 42.7499 -1 -18.4275 42.9800 99 -18.2001 42.7499 TC 25 -18.2160 42.7584 1 -18.4275 42.9800 TC 25 6 153
1978027S18043 1978 7 SI MM GEORGIA 1978-01-27 12:00:00 TS -18.5651 43.0027 reunion main 107 95 O____O___OP_O_ jtwc_sh SH151978 -18.4000 43.0000 -1 -18.8000 43.0000 99 9.90000 -18.4000 43.0000 TC 25 -18.4254 43.0137 1 -18.8000 43.0000 TC 25 6 147
1978027S18043 1978 7 SI MM GEORGIA 1978-01-27 15:00:00 TS -18.7964 43.1915 main 95 84 P____P___PP_P_ SH151978 -18.6000 43.2501 -1 -19.0799 43.0976 99 -18.6000 43.2501 TC 25 -18.6222 43.2622 1 -19.0799 43.0976 TC 27 6 138
1978027S18043 1978 7 SI MM GEORGIA 1978-01-27 18:00:00 TS -19.0000 43.4200 reunion main 84 53 O____O___OO_O_ jtwc_sh SH151978 -18.8000 43.5000 -1 -19.3000 43.3000 99 9.90000 -18.8000 43.5000 TC 25 -18.8000 43.5000 1 -19.3000 43.3000 TC 30 6 129
1978027S18043 1978 7 SI MM GEORGIA 1978-01-27 21:00:00 TS -19.1952 43.7054 main 53 38 P____P___PP_P_ SH151978 -18.9925 43.7501 -1 -19.5152 43.6499 99 -18.9925 43.7501 TC 25 -18.9606 43.7269 1 -19.5152 43.6499 TC 32 7 126
1978027S18043 1978 7 SI MM GEORGIA 1978-01-28 00:00:00 TS -19.3874 43.9914 reunion main 38 30 O____O___OP_O_ jtwc_sh SH151978 -19.2000 44.0000 -1 -19.7000 44.0000 99 9.90000 -19.2000 44.0000 TC 25 -19.1370 43.9571 1 -19.7000 44.0000 TC 35 6 128
1978027S18043 1978 7 SI MM GEORGIA 1978-01-28 03:00:00 TS -19.5548 44.1901 main 30 0 P____P___PP_P_ SH151978 -19.4049 44.2279 -1 -19.7972 44.1431 99 -19.4049 44.2279 TC 25 -19.3699 44.2086 1 -19.7972 44.1431 TC 32 6 137
1978027S18043 1978 7 SI MM GEORGIA 1978-01-28 06:00:00 TS -19.8200 44.4200 24 1000 reunion main 0 0 O____O___OO_O_ jtwc_sh SH151978 -19.7000 44.5000 -1 -20.0000 44.3000 2 24 1000 2.00000 2.00000 -19.7000 44.5000 TC 25 -19.7000 44.5000 1 -20.0000 44.3000 TC 30 1000 9 142
1978027S18043 1978 7 SI MM GEORGIA 1978-01-28 09:00:00 TS -20.2885 44.7986 main 0 0 P____P___PP_P_ SH151978 -20.1401 44.8775 -1 -20.4977 44.6769 2 -20.1401 44.8775 TC 25 -20.1669 44.8839 1 -20.4977 44.6769 TC 27 13 144
1978027S18043 1978 7 SI MM GEORGIA 1978-01-28 12:00:00 TS -20.8662 45.2211 reunion main 0 0 O____O___OP_O_ jtwc_sh SH151978 -20.7000 45.3000 -1 -21.1000 45.1000 99 9.90000 -20.7000 45.3000 TC 25 -20.7310 45.3056 1 -21.1000 45.1000 TC 25 14 147
1978027S18043 1978 7 SI MM GEORGIA 1978-01-28 15:00:00 TS -21.4359 45.6060 main 0 0 P____P___PP_P_ SH151978 -21.3200 45.7150 -1 -21.5925 45.4377 99 -21.3200 45.7150 TC 25 -21.3545 45.7247 1 -21.5925 45.4377 TC 25 14 150
1978027S18043 1978 7 SI MM GEORGIA 1978-01-28 18:00:00 TS -22.0400 45.9400 reunion main 0 0 O____O___OO_O_ jtwc_sh SH151978 -22.0000 46.1000 -1 -22.1000 45.7000 99 9.90000 -22.0000 46.1000 TC 25 -22.0000 46.1000 1 -22.1000 45.7000 TC 25 14 156
1978027S18043 1978 7 SI MM GEORGIA 1978-01-28 21:00:00 TS -22.6852 46.2079 main 0 0 P____P___PP_P_ SH151978 -22.7149 46.4375 -1 -22.6624 45.8803 99 -22.7149 46.4375 TC 25 -22.6711 46.4038 1 -22.6624 45.8803 TC 25 14 162
1978027S18043 1978 7 SI MM GEORGIA 1978-01-29 00:00:00 TS -23.3494 46.4110 reunion main 0 0 O____O___OP_O_ jtwc_sh SH151978 -23.4000 46.7000 -1 -23.3000 46.0000 99 9.90000 -23.4000 46.7000 TC 25 -23.3470 46.6549 1 -23.3000 46.0000 TC 25 14 167
1978027S18043 1978 7 SI MM GEORGIA 1978-01-29 03:00:00 TS -24.0428 46.5599 main 0 0 P____P___PP_P_ SH151978 -24.0099 46.8878 -1 -24.1099 46.0852 99 -24.0099 46.8878 TC 25 -23.9744 46.8535 1 -24.1099 46.0852 TC 25 13 169
1978027S18043 1978 7 SI MM GEORGIA 1978-01-29 06:00:00 MX -24.6200 46.6800 36 991 reunion main 0 0 O____O___OO_O_ jtwc_sh SH151978 -24.5000 47.0000 -1 -24.8000 46.2000 3 36 991 3.00000 3.00000 -24.5000 47.0000 TC 25 -24.5000 47.0000 1 -24.8000 46.2000 EX 25 991 9 165
1978027S18043 1978 7 SI MM GEORGIA 1978-01-29 09:00:00 MX -24.9373 46.8273 main 0 0 P____P___PP_P_ SH151978 -24.8525 47.0652 -1 -25.0601 46.4502 3 -24.8525 47.0652 TC 25 -24.8616 47.1057 1 -25.0601 46.4502 EX 30 6 155
1978027S18043 1978 7 SI MM GEORGIA 1978-01-29 12:00:00 MX -25.1439 46.9523 reunion main 0 0 O____O___OP_O_ jtwc_sh SH151978 -25.1000 47.1000 -1 -25.2000 46.7000 99 9.90000 -25.1000 47.1000 TC 25 -25.1196 47.1615 1 -25.2000 46.7000 EX 35 5 159
1978027S18043 1978 7 SI MM GEORGIA 1978-01-29 15:00:00 MX -25.4036 47.0293 main 30 30 P____P___PP_P_ SH151978 -25.3150 47.1575 -1 -25.5349 46.8226 99 -25.3150 47.1575 TC 25 -25.3179 47.1865 1 -25.5349 46.8226 EX 40 5 167
1978027S18043 1978 7 SI MM GEORGIA 1978-01-29 18:00:00 MX -25.6600 47.0800 reunion main 63 63 O____O___OO_O_ jtwc_sh SH151978 -25.5000 47.2000 -1 -25.9000 46.9000 99 9.90000 -25.5000 47.2000 TC 25 -25.5000 47.2000 1 -25.9000 46.9000 EX 45 5 170
1978027S18043 1978 7 SI MM GEORGIA 1978-01-29 21:00:00 MX -25.9054 47.1257 main 83 83 P____P___PP_P_ SH151978 -25.6925 47.2001 -1 -26.2150 47.0000 99 -25.6925 47.2001 TC 25 -25.7119 47.2283 1 -26.2150 47.0000 EX 50 5 170
1978027S18043 1978 7 SI MM GEORGIA 1978-01-30 00:00:00 MX -26.1440 47.1701 reunion main 108 108 O____O___OP_O_ jtwc_sh SH151978 -25.9000 47.2000 -1 -26.5000 47.1000 99 9.90000 -25.9000 47.2000 TC 25 -25.9200 47.2503 1 -26.5000 47.1000 EX 55 5 170
1978027S18043 1978 7 SI MM GEORGIA 1978-01-30 03:00:00 MX -26.3826 47.2255 main 139 139 P____P___PP_P_ SH151978 -26.1275 47.2425 -1 -26.7574 47.1852 99 -26.1275 47.2425 TC 30 -26.1431 47.2721 1 -26.7574 47.1852 EX 50 5 167
1978027S18043 1978 7 SI MM GEORGIA 1978-01-30 06:00:00 MX -26.6400 47.3000 36 991 reunion main 164 164 O____O___OO_O_ jtwc_sh SH151978 -26.4000 47.3000 -1 -27.0000 47.3000 3 36 991 3.00000 3.00000 -26.4000 47.3000 TC 35 -26.4000 47.3000 2 -27.0000 47.3000 EX 45 991 6 164
1978027S18043 1978 7 SI MM GEORGIA 1978-01-30 09:00:00 MX -26.9354 47.4002 main 199 199 P____P___PP_P_ SH151978 -26.7350 47.3500 -1 -27.2425 47.4850 3 -26.7350 47.3500 TC 35 -26.7222 47.3308 2 -27.2425 47.4850 EX 47 6 163
1978027S18043 1978 7 SI MM GEORGIA 1978-01-30 12:00:00 MX -27.2555 47.5141 reunion main 244 244 O____O___OP_O_ jtwc_sh SH151978 -27.1000 47.4000 -1 -27.5000 47.7000 99 9.90000 -27.1000 47.4000 TC 35 -27.0774 47.3703 2 -27.5000 47.7000 EX 50 7 163
1978027S18043 1978 7 SI MM GEORGIA 1978-01-30 15:00:00 MX -27.5858 47.6220 main 279 279 P____P___PP_P_ SH151978 -27.4575 47.4426 -1 -27.7850 47.9001 99 -27.4575 47.4426 TC 35 -27.4440 47.4246 2 -27.7850 47.9001 EX 50 7 163
1978027S18043 1978 7 SI MM GEORGIA 1978-01-30 18:00:00 MX -27.9200 47.7400 reunion main 314 314 O____O___OO_O_ jtwc_sh SH151978 -27.8000 47.5000 -1 -28.1000 48.1000 99 9.90000 -27.8000 47.5000 TC 35 -27.8000 47.5000 2 -28.1000 48.1000 EX 50 7 162
1978027S18043 1978 7 SI MM GEORGIA 1978-01-30 21:00:00 MX -28.2543 47.8723 main 363 363 P____P___PP_P_ SH151978 -28.1075 47.5851 -1 -28.4650 48.3000 99 -28.1075 47.5851 TC 35 -28.1265 47.5913 2 -28.4650 48.3000 EX 47 7 159
1978027S18043 1978 7 SI MM GEORGIA 1978-01-31 00:00:00 MX -28.5675 48.0210 reunion main 397 397 O____O___OP_O_ jtwc_sh SH151978 -28.4000 47.7000 -1 -28.8000 48.5000 99 9.90000 -28.4000 47.7000 TC 35 -28.4374 47.7051 2 -28.8000 48.5000 EX 45 6 155
1978027S18043 1978 7 SI MM GEORGIA 1978-01-31 03:00:00 MX -28.8349 48.1854 main 425 425 P____P___PP_P_ SH151978 -28.7075 47.8350 -1 -29.0150 48.7077 99 -28.7075 47.8350 TC 35 -28.7296 47.8414 2 -29.0150 48.7077 EX 40 6 150
1978027S18043 1978 7 SI MM GEORGIA 1978-01-31 06:00:00 MX -29.0800 48.3600 28 997 reunion main 463 463 O____O___OO_O_ jtwc_sh SH151978 -29.0000 48.0000 -1 -29.2000 48.9000 2 28 997 2.50000 2.50000 -29.0000 48.0000 TC 35 -29.0000 48.0000 2 -29.2000 48.9000 EX 35 997 6 150
1978027S18043 1978 7 SI MM GEORGIA 1978-01-31 09:00:00 MX -29.3445 48.5257 main 487 487 P____P___PP_P_ SH151978 -29.2650 48.1925 -1 -29.4649 49.0426 2 -29.2650 48.1925 TC 35 -29.2626 48.1583 2 -29.4649 49.0426 EX 40 6 149
1978027S18043 1978 7 SI MM GEORGIA 1978-01-31 12:00:00 MX -29.5804 48.7080 reunion main 525 525 O____O___OP_O_ jtwc_sh SH151978 -29.5000 48.4000 -1 -29.7000 49.2000 99 9.90000 -29.5000 48.4000 TC 35 -29.5021 48.3402 2 -29.7000 49.2000 EX 45 5 140
1978027S18043 1978 7 SI MM GEORGIA 1978-01-31 15:00:00 MX -29.7611 48.9305 main 553 553 P____P___PP_P_ SH151978 -29.7225 48.6000 -1 -29.8226 49.4501 99 -29.7225 48.6000 TC 35 -29.7156 48.5520 2 -29.8226 49.4501 EX 45 5 129
1978027S18043 1978 7 SI MM GEORGIA 1978-01-31 18:00:00 MX -29.9000 49.1600 reunion main 575 575 O____O___OO_O_ jtwc_sh SH151978 -29.9000 48.8000 -1 -29.9000 49.7000 99 9.90000 -29.9000 48.8000 TC 35 -29.9000 48.8000 2 -29.9000 49.7000 EX 45 4 125
1978027S18043 1978 7 SI MM GEORGIA 1978-01-31 21:00:00 MX -30.0072 49.3292 main 589 589 P____P___PP_P_ SH151978 -30.0072 48.9628 -1 -29.9849 49.8577 99 -30.0072 48.9628 TC 30 -30.0517 49.0050 2 -29.9849 49.8577 EX 45 4 124
1978027S18043 1978 7 SI MM GEORGIA 1978-02-01 00:00:00 MX -30.1153 49.5314 reunion main 608 608 O____O___OP_O_ jtwc_sh SH151978 -30.1000 49.2000 -1 -30.1000 50.0000 99 9.90000 -30.1000 49.2000 TC 25 -30.1765 49.2569 2 -30.1000 50.0000 EX 45 5 123
1978027S18043 1978 7 SI MM GEORGIA 1978-02-01 03:00:00 MX -30.2743 49.8041 main 641 641 P____P___PP_P_ SH151978 -30.2495 49.5600 -1 -30.2922 50.1477 99 -30.2495 49.5600 TC 25 -30.2882 49.6052 2 -30.2922 50.1477 EX 40 7 119
1978027S18043 1978 7 SI MM GEORGIA 1978-02-01 06:00:00 MX -30.4400 50.2200 28 997 reunion main 669 669 O____O___OO_O_ jtwc_sh SH151978 -30.4000 50.1000 -1 -30.5000 50.4000 5 28 997 2.50000 2.50000 -30.4000 50.1000 TC 25 -30.4000 50.1000 1 -30.5000 50.4000 EX 35 997 9 109
1978027S18043 1978 7 SI MM GEORGIA 1978-02-01 09:00:00 MX -30.5821 50.8157 main 718 718 P____P___PP_P_ SH151978 -30.5000 50.8329 -1 -30.6796 50.8097 5 -30.5000 50.8329 TC 25 -30.5511 50.7934 1 -30.6796 50.8097 EX 40 12 103
1978027S18043 1978 7 SI MM GEORGIA 1978-02-01 12:00:00 MX -30.6995 51.5665 reunion main 771 771 O____O___OP_O_ jtwc_sh SH151978 -30.6000 51.7000 -1 -30.8000 51.4000 99 9.90000 -30.6000 51.7000 TC 25 -30.6973 51.6326 1 -30.8000 51.4000 EX 45 14 99
1978027S18043 1978 7 SI MM GEORGIA 1978-02-01 15:00:00 MX -30.7925 52.3893 main 827 827 P____P___PP_P_ SH151978 -30.7645 52.5769 -1 -30.8069 52.1184 99 -30.7645 52.5769 TC 25 -30.8194 52.5558 1 -30.8069 52.1184 EX 42 15 96
1978027S18043 1978 7 SI MM GEORGIA 1978-02-01 18:00:00 MX -30.8600 53.3000 reunion main 894 894 O____O___OO_O_ jtwc_sh SH151978 -30.9000 53.5000 -1 -30.8000 53.0000 99 9.90000 -30.9000 53.5000 TC 25 -30.9000 53.5000 1 -30.8000 53.0000 EX 40 16 95
1978027S18043 1978 7 SI MM GEORGIA 1978-02-01 21:00:00 MX -30.9381 54.2652 main 964 964 P____P___PP_P_ SH151978 -30.9299 54.4654 -1 -30.9515 53.9723 99 -30.9299 54.4654 TC 25 -30.9279 54.4503 1 -30.9515 53.9723 EX 40 17 93
1978027S18043 1978 7 SI MM GEORGIA 1978-02-02 00:00:00 MX -30.9425 55.2788 reunion main 1039 1039 O____O___OP_O_ jtwc_sh SH151978 -30.9000 55.4000 -1 -31.0000 55.1000 99 9.90000 -30.9000 55.4000 TC 25 -30.9127 55.3942 1 -31.0000 55.1000 EX 40 18 85
1978027S18043 1978 7 SI MM GEORGIA 1978-02-02 03:00:00 MX -30.7951 56.3546 main 1053 1038 P____P___PP_P_ SH151978 -30.8574 56.2751 -1 -30.6974 56.4786 99 -30.8574 56.2751 TC 25 -30.8658 56.2658 1 -30.6974 56.4786 EX 35 18 79
1978027S18043 1978 7 SI MM GEORGIA 1978-02-02 06:00:00 MX -30.6000 57.2800 24 1000 reunion main 1041 1035 O____O___OO_O_ jtwc_sh SH151978 -30.8000 57.0000 -1 -30.3000 57.7000 5 24 1000 2.00000 2.00000 -30.8000 57.0000 TC 25 -30.8000 57.0000 1 -30.3000 57.7000 EX 30 1000 13 77
1978027S18043 1978 7 SI MM GEORGIA 1978-02-02 09:00:00 MX -30.4916 57.8706 main 1042 1035 P____P___PP_P_ SH151978 -30.7568 57.5248 -1 -30.0980 58.3906 5 -30.7568 57.5248 TC 25 -30.7481 57.5222 1 -30.0980 58.3906 EX 35 9 75
1978027S18043 1978 7 SI MM GEORGIA 1978-02-02 12:00:00 MX -30.3767 58.2613 reunion main 1040 1024 O____O___OP_O_ jtwc_sh SH151978 -30.7000 57.9000 -1 -29.9000 58.8000 99 9.90000 -30.7000 57.9000 TC 25 -30.6834 57.9066 1 -29.9000 58.8000 EX 40 7 66
1978027S18043 1978 7 SI MM GEORGIA 1978-02-02 15:00:00 MX -30.2042 58.6064 main 1027 1012 P____P___PP_P_ SH151978 -30.6147 58.2149 -1 -29.5947 59.1948 99 -30.6147 58.2149 TC 25 -30.6022 58.2127 1 -29.5947 59.1948 EX 37 7 54
1978027S18043 1978 7 SI MM GEORGIA 1978-02-02 18:00:00 MX -29.9800 58.9000 reunion main 1015 994 O____O___OO_O_ jtwc_sh SH151978 -30.5000 58.5000 -1 -29.2000 59.5000 99 9.90000 -30.5000 58.5000 TC 25 -30.5000 58.5000 1 -29.2000 59.5000 EX 35 8 48
1978027S18043 1978 7 SI MM GEORGIA 1978-02-02 21:00:00 MX -29.6908 59.2653 main 998 975 P____P___PP_P_ SH151978 -30.3575 58.8425 -1 -28.6774 59.8634 99 -30.3575 58.8425 TC 25 -30.3841 58.9146 1 -28.6774 59.8634 EX 35 8 44
1978027S18043 1978 7 SI MM GEORGIA 1978-02-03 00:00:00 MX -29.4091 59.5427 reunion main 975 959 O____O___OP_O_ jtwc_sh SH151978 -30.2000 59.2000 -1 -28.2000 60.0000 99 9.90000 -30.2000 59.2000 TC 25 -30.2456 59.3133 1 -28.2000 60.0000 EX 35 6 33
1978027S18043 1978 7 SI MM GEORGIA 1978-02-03 03:00:00 MX -29.2101 59.6207 main 959 949 P____P___PP_P_ SH151978 -30.0576 59.5800 -1 -27.9256 59.6441 99 -30.0576 59.5800 TC 25 -30.0841 59.6553 1 -27.9256 59.6441 EX 30 4 11
1978027S18043 1978 7 SI MM GEORGIA 1978-02-03 06:00:00 MX -29.0600 59.6200 20 1003 reunion main 949 933 O____O___OO_O_ jtwc_sh SH151978 -29.9000 59.9000 -1 -27.8000 59.2000 5 20 1003 1.50000 1.50000 -29.9000 59.9000 TC 25 -29.9000 59.9000 1 -27.8000 59.2000 EX 25 1003 3 13
1978027S18043 1978 7 SI MM GEORGIA 1978-02-03 09:00:00 MX -28.9297 59.7006 main 933 923 P____P___PP_P_ SH151978 -29.7149 60.1251 -1 -27.7698 59.0978 5 -29.7149 60.1251 TC 25 -29.6794 60.0573 1 -27.7698 59.0978 EX 30 3 22
1978027S18043 1978 7 SI MM GEORGIA 1978-02-03 12:00:00 MX -28.8082 59.7420 reunion main 923 913 O____O___OP_O_ jtwc_sh SH151978 -29.5000 60.2000 -1 -27.8000 59.1000 99 9.90000 -29.5000 60.2000 TC 25 -29.4412 60.1098 1 -27.8000 59.1000 EX 35 3 0
1978027S18043 1978 7 SI MM GEORGIA 1978-02-03 15:00:00 MX -28.6585 59.6784 main 913 885 P____P___PP_P_ SH151978 -29.2499 60.1174 -1 -27.7925 59.0500 99 -29.2499 60.1174 TC 25 -29.2075 60.0574 1 -27.7925 59.0500 EX 32 3 329
1978027S18043 1978 7 SI MM GEORGIA 1978-02-03 18:00:00 MX -28.5200 59.5400 reunion main 885 870 O____O___OO_O_ jtwc_sh SH151978 -29.0000 59.9000 -1 -27.8000 59.0000 99 9.90000 -29.0000 59.9000 TC 25 -29.0000 59.9000 1 -27.8000 59.0000 EX 30 4 313
1978027S18043 1978 7 SI MM GEORGIA 1978-02-03 21:00:00 MX -28.4045 59.3726 main 870 851 P____P___PP_P_ SH151978 -28.7699 59.6374 -1 -27.8425 58.9575 99 -28.7699 59.6374 TC 25 -28.7975 59.6734 1 -27.8425 58.9575 EX 27 4 300
1978027S18043 1978 7 SI MM GEORGIA 1978-02-04 00:00:00 MX -28.3260 59.1495 reunion main 847 839 O____O___OP_O_ jtwc_sh SH151978 -28.6000 59.3000 -1 -27.9000 58.9000 99 9.90000 -28.6000 59.3000 TC 25 -28.6299 59.3476 1 -27.9000 58.9000 EX 25 4 287
1978027S18043 1978 7 SI MM GEORGIA 1978-02-04 03:00:00 MX -28.2773 58.8995 main 839 828 P____P___PP_P_ SH151978 -28.4974 58.9298 -1 -27.9348 58.8448 99 -28.4974 58.9298 TC 25 -28.5223 58.9481 1 -27.9348 58.8448 EX 22 5 273
1978027S18043 1978 7 SI MM GEORGIA 1978-02-04 06:00:00 MX -28.3000 58.5800 reunion main 828 820 O____O___OO_O_ jtwc_sh SH151978 -28.5000 58.5000 -1 -28.0000 58.7000 6 9.90000 -28.5000 58.5000 TC 25 -28.5000 58.5000 1 -28.0000 58.7000 EX 20 7 258
1978027S18043 1978 7 SI MM GEORGIA 1978-02-04 09:00:00 MX -28.4139 58.1682 main 824 821 P____P___PP_P_ SH151978 -28.6125 58.0152 -1 -28.1276 58.3950 6 -28.6125 58.0152 TC 25 -28.5895 58.0204 1 -28.1276 58.3950 EX 20 8 249
1978027S18043 1978 7 SI MM GEORGIA 1978-02-04 12:00:00 MX -28.5922 57.7005 reunion main 831 829 O____O___OP_O_ jtwc_sh SH151978 -28.8000 57.5000 -1 -28.3000 58.0000 99 9.90000 -28.8000 57.5000 TC 25 -28.7611 57.5023 1 -28.3000 58.0000 EX 20 9 246
1978027S18043 1978 7 SI MM GEORGIA 1978-02-04 15:00:00 MX -28.7803 57.2394 main 842 840 P____P___PP_P_ SH151978 -29.0000 56.9851 -1 -28.4623 57.6220 99 -29.0000 56.9851 TC 25 -28.9770 56.9827 1 -28.4623 57.6220 EX 20 9 243
1978027S18043 1978 7 SI MM GEORGIA 1978-02-04 18:00:00 MX -29.0000 56.7800 reunion main 857 856 O____O___OO_O_ jtwc_sh SH151978 -29.2000 56.5000 -1 -28.7000 57.2000 99 9.90000 -29.2000 56.5000 TC 25 -29.2000 56.5000 1 -28.7000 57.2000 EX 20 9 240
1978027S18043 1978 7 SI MM GEORGIA 1978-02-04 21:00:00 MX -29.2451 56.3306 main 874 874 P____P___PP_P_ SH151978 -29.3499 56.0697 -1 -29.0625 56.7150 99 -29.3499 56.0697 TC 25 -29.4008 56.0835 1 -29.0625 56.7150 EX 20 9 236
1978027S18043 1978 7 SI MM GEORGIA 1978-02-05 00:00:00 MX -29.5159 55.9048 reunion main 905 905 O____O___OP_O_ jtwc_sh SH151978 -29.5000 55.7000 -1 -29.5000 56.2000 99 9.90000 -29.5000 55.7000 TC 25 -29.5795 55.7242 1 -29.5000 56.2000 EX 20 9 232
1978027S18043 1978 7 SI MM GEORGIA 1978-02-05 03:00:00 MX -29.8039 55.5130 main 938 938 P____P___PP_P_ SH151978 -29.6876 55.3853 -1 -29.9503 55.6957 99 -29.6876 55.3853 TC 25 -29.7435 55.4028 1 -29.9503 55.6957 EX 20 9 229
1978027S18043 1978 7 SI MM GEORGIA 1978-02-05 06:00:00 MX -30.1000 55.1400 reunion main 971 O____O___OO_O_ jtwc_sh SH151978 -29.9000 55.1000 -1 -30.4000 55.2000 6 9.90000 -29.9000 55.1000 TC 25 -29.9000 55.1000 1 -30.4000 55.2000 EX 20 9 228

About IBTrACS Database

This database is a web-friendly format of International Best Track Archive for Climate Stewardship (IBTrACS), a global best track data archive curated by NOAA dating back to 1842.

Updated: 2021-12-03